sensor_id;sensor_type;location;lat;lon;timestamp;pressure;altitude;pressure_sealevel;temperature;humidity
49943;BME280;36011;53.362;58.948;2023-04-23T00:00:34;95608.31;;;7.04;68.47
49943;BME280;36011;53.362;58.948;2023-04-23T00:03:37;95599.34;;;6.95;68.84
49943;BME280;36011;53.362;58.948;2023-04-23T00:06:42;95593.72;;;6.89;69.08
49943;BME280;36011;53.362;58.948;2023-04-23T00:09:49;95589.13;;;6.92;68.86
49943;BME280;36011;53.362;58.948;2023-04-23T00:12:55;95590.91;;;7.16;69.01
49943;BME280;36011;53.362;58.948;2023-04-23T00:15:57;95582.31;;;7.27;68.80
49943;BME280;36011;53.362;58.948;2023-04-23T00:19:01;95595.88;;;7.32;68.56
49943;BME280;36011;53.362;58.948;2023-04-23T00:22:05;95607.94;;;7.22;68.59
49943;BME280;36011;53.362;58.948;2023-04-23T00:25:07;95614.28;;;7.06;69.20
49943;BME280;36011;53.362;58.948;2023-04-23T00:28:11;95612.78;;;6.91;69.06
49943;BME280;36011;53.362;58.948;2023-04-23T00:31:20;95605.59;;;6.69;69.62
49943;BME280;36011;53.362;58.948;2023-04-23T00:34:25;95631.81;;;6.67;69.62
49943;BME280;36011;53.362;58.948;2023-04-23T00:37:29;95631.19;;;6.64;69.48
49943;BME280;36011;53.362;58.948;2023-04-23T00:40:31;95635.69;;;6.62;69.82
49943;BME280;36011;53.362;58.948;2023-04-23T00:43:35;95630.59;;;6.60;69.77
49943;BME280;36011;53.362;58.948;2023-04-23T00:46:38;95628.91;;;6.59;69.66
49943;BME280;36011;53.362;58.948;2023-04-23T00:49:41;95636.25;;;6.54;69.62
49943;BME280;36011;53.362;58.948;2023-04-23T00:52:50;95598.41;;;6.21;69.85
49943;BME280;36011;53.362;58.948;2023-04-23T00:55:53;95653.56;;;6.42;70.15
49943;BME280;36011;53.362;58.948;2023-04-23T00:58:55;95653.97;;;6.36;69.78
49943;BME280;36011;53.362;58.948;2023-04-23T01:02:02;95668.63;;;6.39;69.81
49943;BME280;36011;53.362;58.948;2023-04-23T01:05:06;95671.97;;;6.41;69.80
49943;BME280;36011;53.362;58.948;2023-04-23T01:08:09;95680.34;;;6.46;69.13
49943;BME280;36011;53.362;58.948;2023-04-23T01:11:18;95679.94;;;6.52;68.57
49943;BME280;36011;53.362;58.948;2023-04-23T01:14:22;95680.75;;;6.52;68.30
49943;BME280;36011;53.362;58.948;2023-04-23T01:17:28;95680.97;;;6.62;68.49
49943;BME280;36011;53.362;58.948;2023-04-23T01:20:36;95693.63;;;6.81;67.93
49943;BME280;36011;53.362;58.948;2023-04-23T01:23:40;95702.28;;;6.94;67.42
49943;BME280;36011;53.362;58.948;2023-04-23T01:26:43;95702.06;;;7.10;67.20
49943;BME280;36011;53.362;58.948;2023-04-23T01:29:46;95708.72;;;7.27;66.42
49943;BME280;36011;53.362;58.948;2023-04-23T01:32:50;95704.91;;;7.44;66.07
49943;BME280;36011;53.362;58.948;2023-04-23T01:35:53;95706.44;;;7.59;65.46
49943;BME280;36011;53.362;58.948;2023-04-23T01:38:57;95691.34;;;7.63;65.24
49943;BME280;36011;53.362;58.948;2023-04-23T01:42:03;95685.28;;;7.62;65.24
49943;BME280;36011;53.362;58.948;2023-04-23T01:45:09;95702.44;;;7.67;64.98
49943;BME280;36011;53.362;58.948;2023-04-23T01:48:16;95709.66;;;7.76;64.89
49943;BME280;36011;53.362;58.948;2023-04-23T01:51:17;95703.13;;;7.81;64.58
49943;BME280;36011;53.362;58.948;2023-04-23T01:54:23;95717.63;;;7.98;64.43
49943;BME280;36011;53.362;58.948;2023-04-23T01:57:29;95721.44;;;8.05;64.11
49943;BME280;36011;53.362;58.948;2023-04-23T02:00:37;95728.91;;;8.23;63.57
49943;BME280;36011;53.362;58.948;2023-04-23T02:03:44;95724.22;;;8.39;63.31
49943;BME280;36011;53.362;58.948;2023-04-23T02:06:50;95720.72;;;8.63;62.84
49943;BME280;36011;53.362;58.948;2023-04-23T02:09:54;95723.50;;;8.84;62.00
49943;BME280;36011;53.362;58.948;2023-04-23T02:12:58;95725.78;;;9.22;61.06
49943;BME280;36011;53.362;58.948;2023-04-23T02:16:02;95733.31;;;9.49;60.59
49943;BME280;36011;53.362;58.948;2023-04-23T02:19:06;95731.75;;;9.69;59.87
49943;BME280;36011;53.362;58.948;2023-04-23T02:22:13;95739.81;;;9.88;59.32
49943;BME280;36011;53.362;58.948;2023-04-23T02:25:17;95730.44;;;10.07;58.59
49943;BME280;36011;53.362;58.948;2023-04-23T02:28:19;95708.97;;;9.90;58.06
49943;BME280;36011;53.362;58.948;2023-04-23T02:31:23;95739.84;;;9.77;58.40
49943;BME280;36011;53.362;58.948;2023-04-23T02:34:27;95736.41;;;9.54;58.74
49943;BME280;36011;53.362;58.948;2023-04-23T02:37:34;95736.53;;;9.53;58.94
49943;BME280;36011;53.362;58.948;2023-04-23T02:40:42;95745.81;;;9.68;58.70
49943;BME280;36011;53.362;58.948;2023-04-23T02:43:46;95756.78;;;9.84;58.21
49943;BME280;36011;53.362;58.948;2023-04-23T02:46:47;95750.31;;;10.00;57.84
49943;BME280;36011;53.362;58.948;2023-04-23T02:49:52;95765.44;;;10.07;57.51
49943;BME280;36011;53.362;58.948;2023-04-23T02:52:57;95772.72;;;10.15;57.15
49943;BME280;36011;53.362;58.948;2023-04-23T02:56:03;95779.44;;;10.08;56.61
49943;BME280;36011;53.362;58.948;2023-04-23T02:59:08;95790.88;;;10.18;56.40
49943;BME280;36011;53.362;58.948;2023-04-23T03:02:12;95757.16;;;10.34;55.36
49943;BME280;36011;53.362;58.948;2023-04-23T03:05:17;95782.53;;;10.77;54.16
49943;BME280;36011;53.362;58.948;2023-04-23T03:08:18;95783.78;;;10.94;53.63
49943;BME280;36011;53.362;58.948;2023-04-23T03:11:24;95787.03;;;10.87;53.66
49943;BME280;36011;53.362;58.948;2023-04-23T03:14:28;95787.22;;;10.74;53.60
49943;BME280;36011;53.362;58.948;2023-04-23T03:17:31;95791.03;;;10.49;54.23
49943;BME280;36011;53.362;58.948;2023-04-23T03:20:38;95785.25;;;10.23;54.54
49943;BME280;36011;53.362;58.948;2023-04-23T03:23:41;95806.06;;;10.03;54.76
49943;BME280;36011;53.362;58.948;2023-04-23T03:26:42;95802.03;;;9.99;54.74
49943;BME280;36011;53.362;58.948;2023-04-23T03:29:46;95806.38;;;10.21;54.43
49943;BME280;36011;53.362;58.948;2023-04-23T03:32:55;95809.00;;;10.44;54.05
49943;BME280;36011;53.362;58.948;2023-04-23T03:36:03;95812.47;;;10.76;53.42
49943;BME280;36011;53.362;58.948;2023-04-23T03:39:11;95802.44;;;11.12;52.44
49943;BME280;36011;53.362;58.948;2023-04-23T03:42:15;95813.84;;;11.13;52.13
49943;BME280;36011;53.362;58.948;2023-04-23T03:45:21;95823.41;;;10.93;52.62
49943;BME280;36011;53.362;58.948;2023-04-23T03:48:27;95819.88;;;10.71;52.65
49943;BME280;36011;53.362;58.948;2023-04-23T03:51:29;95821.63;;;10.50;53.03
49943;BME280;36011;53.362;58.948;2023-04-23T03:54:37;95820.81;;;10.49;53.12
49943;BME280;36011;53.362;58.948;2023-04-23T03:57:41;95828.41;;;10.64;52.94
49943;BME280;36011;53.362;58.948;2023-04-23T04:00:46;95836.66;;;10.70;52.42
49943;BME280;36011;53.362;58.948;2023-04-23T04:03:52;95846.72;;;10.65;52.17
49943;BME280;36011;53.362;58.948;2023-04-23T04:06:57;95845.28;;;10.61;52.13
49943;BME280;36011;53.362;58.948;2023-04-23T04:10:05;95848.69;;;10.84;51.51
49943;BME280;36011;53.362;58.948;2023-04-23T04:13:09;95852.72;;;10.88;51.35
49943;BME280;36011;53.362;58.948;2023-04-23T04:16:13;95862.41;;;10.88;51.11
49943;BME280;36011;53.362;58.948;2023-04-23T04:19:21;95860.13;;;10.62;51.86
49943;BME280;36011;53.362;58.948;2023-04-23T04:22:27;95864.75;;;10.59;52.24
49943;BME280;36011;53.362;58.948;2023-04-23T04:25:31;95868.41;;;10.46;52.90
49943;BME280;36011;53.362;58.948;2023-04-23T04:28:36;95864.31;;;10.53;53.00
49943;BME280;36011;53.362;58.948;2023-04-23T04:31:40;95870.94;;;11.01;52.17
49943;BME280;36011;53.362;58.948;2023-04-23T04:34:45;95870.41;;;11.91;49.14
49943;BME280;36011;53.362;58.948;2023-04-23T04:37:49;95860.25;;;12.77;47.19
49943;BME280;36011;53.362;58.948;2023-04-23T04:40:56;95870.22;;;13.70;45.08
49943;BME280;36011;53.362;58.948;2023-04-23T04:44:05;95881.25;;;14.31;43.40
49943;BME280;36011;53.362;58.948;2023-04-23T04:47:12;95889.56;;;14.08;43.24
49943;BME280;36011;53.362;58.948;2023-04-23T04:50:18;95889.09;;;13.76;44.16
49943;BME280;36011;53.362;58.948;2023-04-23T04:53:23;95889.16;;;13.46;44.19
49943;BME280;36011;53.362;58.948;2023-04-23T04:56:29;95898.34;;;13.03;44.11
49943;BME280;36011;53.362;58.948;2023-04-23T04:59:35;95905.53;;;12.63;44.98
49943;BME280;36011;53.362;58.948;2023-04-23T05:02:37;95912.50;;;12.33;45.58
49943;BME280;36011;53.362;58.948;2023-04-23T05:05:46;95907.50;;;11.99;45.97
49943;BME280;36011;53.362;58.948;2023-04-23T05:08:51;95910.69;;;11.93;46.30
49943;BME280;36011;53.362;58.948;2023-04-23T05:11:57;95922.31;;;11.69;46.83
49943;BME280;36011;53.362;58.948;2023-04-23T05:14:59;95924.63;;;11.63;47.23
49943;BME280;36011;53.362;58.948;2023-04-23T05:18:08;95919.75;;;11.58;47.58
49943;BME280;36011;53.362;58.948;2023-04-23T05:21:10;95938.88;;;11.60;47.46
49943;BME280;36011;53.362;58.948;2023-04-23T05:24:17;95934.06;;;11.65;47.18
49943;BME280;36011;53.362;58.948;2023-04-23T05:27:20;95938.38;;;11.66;47.04
49943;BME280;36011;53.362;58.948;2023-04-23T05:30:27;95938.38;;;11.66;46.85
49943;BME280;36011;53.362;58.948;2023-04-23T05:33:31;95947.75;;;11.59;47.07
49943;BME280;36011;53.362;58.948;2023-04-23T05:36:35;95949.41;;;11.60;47.02
49943;BME280;36011;53.362;58.948;2023-04-23T05:39:44;95956.63;;;11.58;47.04
49943;BME280;36011;53.362;58.948;2023-04-23T05:42:46;95959.53;;;11.55;47.00
49943;BME280;36011;53.362;58.948;2023-04-23T05:45:53;95955.53;;;11.61;47.21
49943;BME280;36011;53.362;58.948;2023-04-23T05:48:57;95975.50;;;11.96;47.03
49943;BME280;36011;53.362;58.948;2023-04-23T05:52:01;95963.28;;;12.25;46.70
49943;BME280;36011;53.362;58.948;2023-04-23T05:55:06;95970.72;;;12.51;46.21
49943;BME280;36011;53.362;58.948;2023-04-23T05:58:12;95981.94;;;12.74;45.88
49943;BME280;36011;53.362;58.948;2023-04-23T06:01:17;95988.34;;;12.91;45.42
49943;BME280;36011;53.362;58.948;2023-04-23T06:04:22;95997.28;;;12.99;44.94
49943;BME280;36011;53.362;58.948;2023-04-23T06:07:28;95995.34;;;13.01;44.61
49943;BME280;36011;53.362;58.948;2023-04-23T06:10:32;96003.13;;;13.03;43.90
49943;BME280;36011;53.362;58.948;2023-04-23T06:13:36;96020.47;;;12.96;43.72
49943;BME280;36011;53.362;58.948;2023-04-23T06:16:45;96005.72;;;12.74;43.56
49943;BME280;36011;53.362;58.948;2023-04-23T06:19:49;96008.06;;;12.77;43.46
49943;BME280;36011;53.362;58.948;2023-04-23T06:22:58;96009.78;;;12.97;42.81
49943;BME280;36011;53.362;58.948;2023-04-23T06:25:59;96022.06;;;13.08;41.97
49943;BME280;36011;53.362;58.948;2023-04-23T06:29:03;96037.75;;;13.10;42.00
49943;BME280;36011;53.362;58.948;2023-04-23T06:32:04;96027.56;;;12.95;42.58
49943;BME280;36011;53.362;58.948;2023-04-23T06:35:12;96032.47;;;13.10;42.34
49943;BME280;36011;53.362;58.948;2023-04-23T06:38:17;96037.34;;;13.24;42.26
49943;BME280;36011;53.362;58.948;2023-04-23T06:41:18;96043.47;;;13.24;42.40
49943;BME280;36011;53.362;58.948;2023-04-23T06:44:25;96047.09;;;13.14;42.43
49943;BME280;36011;53.362;58.948;2023-04-23T06:47:26;96050.13;;;12.99;42.77
49943;BME280;36011;53.362;58.948;2023-04-23T06:50:30;96063.44;;;12.98;42.78
49943;BME280;36011;53.362;58.948;2023-04-23T06:53:32;96055.16;;;12.72;43.19
49943;BME280;36011;53.362;58.948;2023-04-23T06:56:34;96056.09;;;12.71;43.01
49943;BME280;36011;53.362;58.948;2023-04-23T06:59:39;96053.53;;;12.59;43.19
49943;BME280;36011;53.362;58.948;2023-04-23T07:02:43;96056.34;;;12.58;43.23
49943;BME280;36011;53.362;58.948;2023-04-23T07:05:44;96067.44;;;12.62;43.48
49943;BME280;36011;53.362;58.948;2023-04-23T07:08:49;96071.94;;;12.71;43.19
49943;BME280;36011;53.362;58.948;2023-04-23T07:11:50;96074.75;;;12.79;43.19
49943;BME280;36011;53.362;58.948;2023-04-23T07:14:58;96092.19;;;12.91;42.85
49943;BME280;36011;53.362;58.948;2023-04-23T07:18:02;96081.91;;;12.88;42.76
49943;BME280;36011;53.362;58.948;2023-04-23T07:21:10;96092.00;;;12.83;43.02
49943;BME280;36011;53.362;58.948;2023-04-23T07:24:14;96093.94;;;12.81;42.96
49943;BME280;36011;53.362;58.948;2023-04-23T07:27:16;96103.94;;;12.77;42.88
49943;BME280;36011;53.362;58.948;2023-04-23T07:30:23;96107.94;;;12.72;43.06
49943;BME280;36011;53.362;58.948;2023-04-23T07:33:25;96103.16;;;12.96;42.53
49943;BME280;36011;53.362;58.948;2023-04-23T07:36:28;96117.47;;;14.04;40.92
49943;BME280;36011;53.362;58.948;2023-04-23T07:39:36;96111.88;;;15.85;37.20
49943;BME280;36011;53.362;58.948;2023-04-23T07:42:38;96119.66;;;16.05;36.76
49943;BME280;36011;53.362;58.948;2023-04-23T07:45:42;96119.78;;;15.40;38.08
49943;BME280;36011;53.362;58.948;2023-04-23T07:48:47;96117.50;;;14.90;39.27
49943;BME280;36011;53.362;58.948;2023-04-23T07:51:53;96125.44;;;14.90;39.12
49943;BME280;36011;53.362;58.948;2023-04-23T07:54:54;96117.81;;;14.87;39.04
49943;BME280;36011;53.362;58.948;2023-04-23T07:57:58;96117.00;;;15.41;38.18
49943;BME280;36011;53.362;58.948;2023-04-23T08:01:04;96135.38;;;15.98;36.93
49943;BME280;36011;53.362;58.948;2023-04-23T08:04:10;96131.50;;;16.28;36.15
49943;BME280;36011;53.362;58.948;2023-04-23T08:07:15;96136.66;;;15.94;36.53
49943;BME280;36011;53.362;58.948;2023-04-23T08:10:19;96139.47;;;15.65;36.81
49943;BME280;36011;53.362;58.948;2023-04-23T08:13:23;96138.41;;;15.58;36.85
49943;BME280;36011;53.362;58.948;2023-04-23T08:16:27;96135.41;;;15.15;37.13
49943;BME280;36011;53.362;58.948;2023-04-23T08:19:34;96135.69;;;14.65;37.88
49943;BME280;36011;53.362;58.948;2023-04-23T08:22:40;96147.13;;;14.17;38.65
49943;BME280;36011;53.362;58.948;2023-04-23T08:25:44;96149.34;;;13.73;39.51
49943;BME280;36011;53.362;58.948;2023-04-23T08:28:54;96154.19;;;13.68;39.85
49943;BME280;36011;53.362;58.948;2023-04-23T08:31:58;96142.81;;;14.16;39.08
49943;BME280;36011;53.362;58.948;2023-04-23T08:35:00;96136.84;;;14.53;38.52
49943;BME280;36011;53.362;58.948;2023-04-23T08:38:02;96141.94;;;15.11;37.76
49943;BME280;36011;53.362;58.948;2023-04-23T08:41:11;96152.75;;;18.01;33.49
49943;BME280;36011;53.362;58.948;2023-04-23T08:44:23;96152.66;;;18.60;31.81
49943;BME280;36011;53.362;58.948;2023-04-23T08:47:31;96156.47;;;17.74;32.89
49943;BME280;36011;53.362;58.948;2023-04-23T08:50:38;96165.09;;;16.99;34.04
49943;BME280;36011;53.362;58.948;2023-04-23T08:53:47;96172.75;;;16.41;34.78
49943;BME280;36011;53.362;58.948;2023-04-23T08:56:54;96160.25;;;15.97;35.82
49943;BME280;36011;53.362;58.948;2023-04-23T09:00:04;96170.25;;;16.03;35.90
49943;BME280;36011;53.362;58.948;2023-04-23T09:03:09;96173.28;;;16.08;35.76
49943;BME280;36011;53.362;58.948;2023-04-23T09:06:12;96159.75;;;15.84;36.18
49943;BME280;36011;53.362;58.948;2023-04-23T09:09:15;96178.38;;;15.46;36.82
49943;BME280;36011;53.362;58.948;2023-04-23T09:12:22;96185.41;;;15.28;37.09
49943;BME280;36011;53.362;58.948;2023-04-23T09:15:23;96181.53;;;15.22;37.33
49943;BME280;36011;53.362;58.948;2023-04-23T09:18:31;96185.59;;;15.17;37.43
49943;BME280;36011;53.362;58.948;2023-04-23T09:21:35;96181.59;;;15.03;37.87
49943;BME280;36011;53.362;58.948;2023-04-23T09:24:44;96180.00;;;14.73;38.31
49943;BME280;36011;53.362;58.948;2023-04-23T09:27:51;96192.94;;;14.66;38.21
49943;BME280;36011;53.362;58.948;2023-04-23T09:30:55;96203.34;;;14.97;37.68
49943;BME280;36011;53.362;58.948;2023-04-23T09:34:01;96205.88;;;14.98;37.32
49943;BME280;36011;53.362;58.948;2023-04-23T09:37:03;96209.13;;;14.73;37.87
49943;BME280;36011;53.362;58.948;2023-04-23T09:40:06;96208.69;;;14.38;38.55
49943;BME280;36011;53.362;58.948;2023-04-23T09:43:10;96223.97;;;14.06;39.38
49943;BME280;36011;53.362;58.948;2023-04-23T09:46:34;96217.25;;;13.82;40.08
49943;BME280;36011;53.362;58.948;2023-04-23T09:49:49;96215.88;;;13.98;40.20
49943;BME280;36011;53.362;58.948;2023-04-23T09:52:56;96223.38;;;13.92;40.07
49943;BME280;36011;53.362;58.948;2023-04-23T09:55:58;96235.09;;;13.90;40.29
49943;BME280;36011;53.362;58.948;2023-04-23T09:58:59;96234.50;;;13.86;40.46
49943;BME280;36011;53.362;58.948;2023-04-23T10:02:07;96240.13;;;14.03;40.29
49943;BME280;36011;53.362;58.948;2023-04-23T10:05:20;96236.25;;;14.17;40.10
49943;BME280;36011;53.362;58.948;2023-04-23T10:08:25;96252.25;;;14.15;39.88
49943;BME280;36011;53.362;58.948;2023-04-23T10:11:30;96251.81;;;13.90;39.79
49943;BME280;36011;53.362;58.948;2023-04-23T10:14:33;96237.81;;;13.69;40.14
49943;BME280;36011;53.362;58.948;2023-04-23T10:17:40;96250.38;;;13.77;40.16
49943;BME280;36011;53.362;58.948;2023-04-23T10:20:46;96237.94;;;14.95;37.88
49943;BME280;36011;53.362;58.948;2023-04-23T10:23:56;96249.94;;;17.45;33.53
49943;BME280;36011;53.362;58.948;2023-04-23T10:27:02;96253.66;;;17.78;32.44
49943;BME280;36011;53.362;58.948;2023-04-23T10:30:05;96262.78;;;16.79;34.01
49943;BME280;36011;53.362;58.948;2023-04-23T10:33:15;96254.41;;;18.05;32.08
49943;BME280;36011;53.362;58.948;2023-04-23T10:36:20;96247.38;;;19.52;29.66
49943;BME280;36011;53.362;58.948;2023-04-23T10:39:33;96257.59;;;19.24;30.04
49943;BME280;36011;53.362;58.948;2023-04-23T10:42:44;96249.50;;;19.82;29.02
49943;BME280;36011;53.362;58.948;2023-04-23T10:45:49;96262.25;;;20.73;28.24
49943;BME280;36011;53.362;58.948;2023-04-23T10:49:28;96266.47;;;20.91;27.86
49943;BME280;36011;53.362;58.948;2023-04-23T10:52:31;96273.09;;;20.72;27.53
49943;BME280;36011;53.362;58.948;2023-04-23T10:55:38;96270.47;;;20.63;27.71
49943;BME280;36011;53.362;58.948;2023-04-23T10:58:49;96275.25;;;20.99;27.44
49943;BME280;36011;53.362;58.948;2023-04-23T11:01:51;96269.91;;;20.99;27.31
49943;BME280;36011;53.362;58.948;2023-04-23T11:04:58;96285.59;;;21.02;27.22
49943;BME280;36011;53.362;58.948;2023-04-23T11:08:05;96280.28;;;20.94;27.52
49943;BME280;36011;53.362;58.948;2023-04-23T11:11:08;96290.69;;;21.35;27.24
49943;BME280;36011;53.362;58.948;2023-04-23T11:14:12;96291.41;;;21.29;26.92
49943;BME280;36011;53.362;58.948;2023-04-23T11:17:21;96291.69;;;20.34;28.21
49943;BME280;36011;53.362;58.948;2023-04-23T11:20:27;96296.94;;;19.06;29.99
49943;BME280;36011;53.362;58.948;2023-04-23T11:23:29;96301.06;;;18.76;30.35
49943;BME280;36011;53.362;58.948;2023-04-23T11:26:35;96297.03;;;18.63;30.75
49943;BME280;36011;53.362;58.948;2023-04-23T11:29:42;96308.25;;;18.83;30.21
49943;BME280;36011;53.362;58.948;2023-04-23T11:32:50;96305.63;;;19.08;30.06
49943;BME280;36011;53.362;58.948;2023-04-23T11:35:57;96319.97;;;18.56;30.42
49943;BME280;36011;53.362;58.948;2023-04-23T11:39:04;96318.97;;;18.41;30.79
49943;BME280;36011;53.362;58.948;2023-04-23T11:42:15;96307.94;;;17.93;31.50
49943;BME280;36011;53.362;58.948;2023-04-23T11:45:24;96347.94;;;17.58;31.94
49943;BME280;36011;53.362;58.948;2023-04-23T11:48:31;96319.88;;;17.37;32.44
49943;BME280;36011;53.362;58.948;2023-04-23T11:51:33;96326.22;;;17.00;33.05
49943;BME280;36011;53.362;58.948;2023-04-23T11:54:41;96338.16;;;16.96;33.08
49943;BME280;36011;53.362;58.948;2023-04-23T11:57:47;96343.63;;;17.13;32.61
49943;BME280;36011;53.362;58.948;2023-04-23T12:00:56;96337.50;;;17.38;32.08
49943;BME280;36011;53.362;58.948;2023-04-23T12:03:58;96348.78;;;16.96;32.62
49943;BME280;36011;53.362;58.948;2023-04-23T12:07:02;96353.25;;;17.14;32.35
49943;BME280;36011;53.362;58.948;2023-04-23T12:10:05;96353.63;;;17.19;32.04
49943;BME280;36011;53.362;58.948;2023-04-23T12:13:19;96347.34;;;16.01;33.98
49943;BME280;36011;53.362;58.948;2023-04-23T12:16:39;96348.38;;;15.04;35.85
49943;BME280;36011;53.362;58.948;2023-04-23T12:19:42;96361.06;;;14.31;37.08
49943;BME280;36011;53.362;58.948;2023-04-23T12:22:44;96351.78;;;14.06;37.73
49943;BME280;36011;53.362;58.948;2023-04-23T12:25:51;96352.03;;;13.93;38.22
49943;BME280;36011;53.362;58.948;2023-04-23T12:28:57;96361.50;;;13.96;38.43
49943;BME280;36011;53.362;58.948;2023-04-23T12:32:13;96345.63;;;13.96;38.23
49943;BME280;36011;53.362;58.948;2023-04-23T12:35:15;96366.47;;;13.89;38.46
49943;BME280;36011;53.362;58.948;2023-04-23T12:38:27;96377.94;;;14.00;38.31
49943;BME280;36011;53.362;58.948;2023-04-23T12:41:31;96377.13;;;14.09;38.31
49943;BME280;36011;53.362;58.948;2023-04-23T12:44:34;96370.53;;;14.24;38.00
49943;BME280;36011;53.362;58.948;2023-04-23T12:47:37;96361.19;;;13.89;38.46
49943;BME280;36011;53.362;58.948;2023-04-23T12:50:38;96374.34;;;13.49;39.50
49943;BME280;36011;53.362;58.948;2023-04-23T12:53:43;96376.34;;;13.57;39.64
49943;BME280;36011;53.362;58.948;2023-04-23T12:56:44;96372.25;;;13.74;39.59
49943;BME280;36011;53.362;58.948;2023-04-23T12:59:50;96386.47;;;13.31;40.22
49943;BME280;36011;53.362;58.948;2023-04-23T13:02:54;96382.53;;;12.81;41.35
49943;BME280;36011;53.362;58.948;2023-04-23T13:06:03;96401.00;;;12.49;42.25
49943;BME280;36011;53.362;58.948;2023-04-23T13:09:09;96391.41;;;12.48;42.62
49943;BME280;36011;53.362;58.948;2023-04-23T13:12:14;96398.59;;;12.46;42.79
49943;BME280;36011;53.362;58.948;2023-04-23T13:15:19;96403.03;;;12.57;42.70
49943;BME280;36011;53.362;58.948;2023-04-23T13:18:23;96401.44;;;12.66;42.60
49943;BME280;36011;53.362;58.948;2023-04-23T13:21:24;96408.47;;;13.20;41.83
49943;BME280;36011;53.362;58.948;2023-04-23T13:24:26;96396.06;;;13.32;41.60
49943;BME280;36011;53.362;58.948;2023-04-23T13:27:28;96393.03;;;13.04;42.10
49943;BME280;36011;53.362;58.948;2023-04-23T13:30:33;96404.31;;;12.74;42.43
49943;BME280;36011;53.362;58.948;2023-04-23T13:33:34;96398.91;;;12.64;42.80
49943;BME280;36011;53.362;58.948;2023-04-23T13:36:38;96406.28;;;12.49;43.05
49943;BME280;36011;53.362;58.948;2023-04-23T13:39:45;96414.91;;;12.51;43.25
49943;BME280;36011;53.362;58.948;2023-04-23T13:42:48;96415.25;;;12.58;43.25
49943;BME280;36011;53.362;58.948;2023-04-23T13:45:58;96427.63;;;12.57;43.30
49943;BME280;36011;53.362;58.948;2023-04-23T13:49:06;96422.66;;;12.75;42.75
49943;BME280;36011;53.362;58.948;2023-04-23T13:52:11;96420.13;;;12.85;42.74
49943;BME280;36011;53.362;58.948;2023-04-23T13:55:12;96432.38;;;12.75;42.68
49943;BME280;36011;53.362;58.948;2023-04-23T13:58:16;96421.31;;;12.81;42.36
49943;BME280;36011;53.362;58.948;2023-04-23T14:01:18;96435.06;;;12.41;43.04
49943;BME280;36011;53.362;58.948;2023-04-23T14:04:24;96443.00;;;12.30;43.42
49943;BME280;36011;53.362;58.948;2023-04-23T14:07:32;96452.81;;;12.17;43.76
49943;BME280;36011;53.362;58.948;2023-04-23T14:10:34;96442.50;;;12.13;43.79
49943;BME280;36011;53.362;58.948;2023-04-23T14:13:36;96454.97;;;12.11;43.83
49943;BME280;36011;53.362;58.948;2023-04-23T14:16:39;96457.84;;;12.08;43.68
49943;BME280;36011;53.362;58.948;2023-04-23T14:19:44;96464.91;;;11.97;44.00
49943;BME280;36011;53.362;58.948;2023-04-23T14:22:54;96466.66;;;11.85;44.14
49943;BME280;36011;53.362;58.948;2023-04-23T14:26:03;96465.66;;;11.75;44.29
49943;BME280;36011;53.362;58.948;2023-04-23T14:29:16;96468.31;;;11.75;44.38
49943;BME280;36011;53.362;58.948;2023-04-23T14:32:20;96477.03;;;11.64;44.47
49943;BME280;36011;53.362;58.948;2023-04-23T14:35:28;96480.94;;;11.47;44.82
49943;BME280;36011;53.362;58.948;2023-04-23T14:38:32;96487.09;;;11.35;45.12
49943;BME280;36011;53.362;58.948;2023-04-23T14:41:34;96486.63;;;11.30;45.28
49943;BME280;36011;53.362;58.948;2023-04-23T14:44:38;96494.28;;;11.09;45.65
49943;BME280;36011;53.362;58.948;2023-04-23T14:47:42;96504.53;;;11.00;46.00
49943;BME280;36011;53.362;58.948;2023-04-23T14:50:55;96502.47;;;10.93;46.20
49943;BME280;36011;53.362;58.948;2023-04-23T14:54:02;96500.00;;;10.78;46.39
49943;BME280;36011;53.362;58.948;2023-04-23T14:57:06;96500.03;;;10.66;46.83
49943;BME280;36011;53.362;58.948;2023-04-23T15:00:08;96507.44;;;10.48;47.15
49943;BME280;36011;53.362;58.948;2023-04-23T15:03:13;96500.59;;;10.32;47.40
49943;BME280;36011;53.362;58.948;2023-04-23T15:06:23;96506.16;;;10.15;47.81
49943;BME280;36011;53.362;58.948;2023-04-23T15:09:28;96520.47;;;10.11;47.83
49943;BME280;36011;53.362;58.948;2023-04-23T15:12:42;96523.00;;;10.00;48.32
49943;BME280;36011;53.362;58.948;2023-04-23T15:15:57;96527.94;;;9.92;48.44
49943;BME280;36011;53.362;58.948;2023-04-23T15:19:08;96526.44;;;9.75;48.67
49943;BME280;36011;53.362;58.948;2023-04-23T15:22:18;96535.44;;;9.71;48.90
49943;BME280;36011;53.362;58.948;2023-04-23T15:25:28;96545.00;;;9.59;49.40
49943;BME280;36011;53.362;58.948;2023-04-23T15:28:35;96546.75;;;9.46;49.76
49943;BME280;36011;53.362;58.948;2023-04-23T15:31:36;96561.06;;;9.27;49.37
49943;BME280;36011;53.362;58.948;2023-04-23T15:34:43;96562.72;;;9.15;49.81
49943;BME280;36011;53.362;58.948;2023-04-23T15:37:44;96563.94;;;9.10;50.15
49943;BME280;36011;53.362;58.948;2023-04-23T15:40:48;96564.53;;;9.01;49.66
49943;BME280;36011;53.362;58.948;2023-04-23T15:43:55;96573.72;;;8.93;50.41
49943;BME280;36011;53.362;58.948;2023-04-23T15:47:00;96571.28;;;8.90;50.36
49943;BME280;36011;53.362;58.948;2023-04-23T15:50:07;96585.00;;;8.81;50.88
49943;BME280;36011;53.362;58.948;2023-04-23T15:53:09;96585.59;;;8.72;50.84
49943;BME280;36011;53.362;58.948;2023-04-23T15:56:18;96591.94;;;8.68;51.12
49943;BME280;36011;53.362;58.948;2023-04-23T15:59:25;96586.63;;;8.55;51.56
49943;BME280;36011;53.362;58.948;2023-04-23T16:02:30;96602.88;;;8.46;51.40
49943;BME280;36011;53.362;58.948;2023-04-23T16:05:34;96588.91;;;8.31;51.38
49943;BME280;36011;53.362;58.948;2023-04-23T16:08:43;96620.38;;;8.31;51.44
49943;BME280;36011;53.362;58.948;2023-04-23T16:11:50;96611.53;;;8.18;51.60